sensor_id;sensor_type;location;lat;lon;timestamp;P1;durP1;ratioP1;P2;durP2;ratioP2
61960;SDS011;47923;42.506;24.192;2024-01-25T00:00:54;10.10;;;3.55;;
61960;SDS011;47923;42.506;24.192;2024-01-25T00:03:21;9.23;;;3.53;;
61960;SDS011;47923;42.506;24.192;2024-01-25T00:05:47;6.97;;;3.47;;
61960;SDS011;47923;42.506;24.192;2024-01-25T00:08:14;12.55;;;4.85;;
61960;SDS011;47923;42.506;24.192;2024-01-25T00:10:40;16.38;;;6.78;;
61960;SDS011;47923;42.506;24.192;2024-01-25T00:13:06;9.48;;;3.80;;
61960;SDS011;47923;42.506;24.192;2024-01-25T00:15:32;5.93;;;2.70;;
61960;SDS011;47923;42.506;24.192;2024-01-25T00:17:57;9.48;;;2.97;;
61960;SDS011;47923;42.506;24.192;2024-01-25T00:20:23;6.00;;;2.50;;
61960;SDS011;47923;42.506;24.192;2024-01-25T00:22:48;5.15;;;2.10;;
61960;SDS011;47923;42.506;24.192;2024-01-25T00:25:14;6.28;;;2.25;;
61960;SDS011;47923;42.506;24.192;2024-01-25T00:27:40;5.60;;;2.35;;
61960;SDS011;47923;42.506;24.192;2024-01-25T00:30:05;6.72;;;2.28;;
61960;SDS011;47923;42.506;24.192;2024-01-25T00:32:32;8.20;;;2.55;;
61960;SDS011;47923;42.506;24.192;2024-01-25T00:35:00;6.75;;;2.35;;
61960;SDS011;47923;42.506;24.192;2024-01-25T00:37:29;6.95;;;2.30;;
61960;SDS011;47923;42.506;24.192;2024-01-25T00:39:57;8.48;;;2.83;;
61960;SDS011;47923;42.506;24.192;2024-01-25T00:42:23;6.38;;;2.38;;
61960;SDS011;47923;42.506;24.192;2024-01-25T00:44:50;7.78;;;2.47;;
61960;SDS011;47923;42.506;24.192;2024-01-25T00:47:16;5.72;;;2.38;;
61960;SDS011;47923;42.506;24.192;2024-01-25T00:49:42;6.05;;;2.80;;
61960;SDS011;47923;42.506;24.192;2024-01-25T00:52:07;7.35;;;3.15;;
61960;SDS011;47923;42.506;24.192;2024-01-25T00:54:34;10.25;;;3.13;;
61960;SDS011;47923;42.506;24.192;2024-01-25T00:57:00;6.43;;;3.00;;
61960;SDS011;47923;42.506;24.192;2024-01-25T00:59:27;7.80;;;2.97;;
61960;SDS011;47923;42.506;24.192;2024-01-25T01:01:53;5.45;;;2.38;;
61960;SDS011;47923;42.506;24.192;2024-01-25T01:04:21;7.97;;;2.60;;
61960;SDS011;47923;42.506;24.192;2024-01-25T01:06:47;5.82;;;1.75;;
61960;SDS011;47923;42.506;24.192;2024-01-25T01:09:13;6.88;;;2.78;;
61960;SDS011;47923;42.506;24.192;2024-01-25T01:11:40;5.25;;;2.30;;
61960;SDS011;47923;42.506;24.192;2024-01-25T01:14:05;7.05;;;2.47;;
61960;SDS011;47923;42.506;24.192;2024-01-25T01:16:32;6.97;;;2.50;;
61960;SDS011;47923;42.506;24.192;2024-01-25T01:18:58;7.22;;;2.67;;
61960;SDS011;47923;42.506;24.192;2024-01-25T01:21:35;3.35;;;1.88;;
61960;SDS011;47923;42.506;24.192;2024-01-25T01:24:01;5.97;;;2.50;;
61960;SDS011;47923;42.506;24.192;2024-01-25T01:26:29;7.07;;;2.40;;
61960;SDS011;47923;42.506;24.192;2024-01-25T01:28:55;5.72;;;2.28;;
61960;SDS011;47923;42.506;24.192;2024-01-25T01:31:21;7.75;;;2.65;;
61960;SDS011;47923;42.506;24.192;2024-01-25T01:33:48;6.70;;;2.20;;
61960;SDS011;47923;42.506;24.192;2024-01-25T01:36:13;5.53;;;2.15;;
61960;SDS011;47923;42.506;24.192;2024-01-25T01:38:42;4.40;;;1.83;;
61960;SDS011;47923;42.506;24.192;2024-01-25T01:41:09;6.45;;;2.60;;
61960;SDS011;47923;42.506;24.192;2024-01-25T01:43:36;6.38;;;2.22;;
61960;SDS011;47923;42.506;24.192;2024-01-25T01:46:04;6.40;;;2.33;;
61960;SDS011;47923;42.506;24.192;2024-01-25T01:51:02;6.72;;;2.05;;
61960;SDS011;47923;42.506;24.192;2024-01-25T01:53:28;7.60;;;2.28;;
61960;SDS011;47923;42.506;24.192;2024-01-25T01:55:54;5.32;;;2.17;;
61960;SDS011;47923;42.506;24.192;2024-01-25T01:58:20;6.38;;;2.00;;
61960;SDS011;47923;42.506;24.192;2024-01-25T02:00:48;5.05;;;2.13;;
61960;SDS011;47923;42.506;24.192;2024-01-25T02:03:15;6.03;;;2.30;;
61960;SDS011;47923;42.506;24.192;2024-01-25T02:05:42;9.00;;;2.40;;
61960;SDS011;47923;42.506;24.192;2024-01-25T02:08:07;4.93;;;2.17;;
61960;SDS011;47923;42.506;24.192;2024-01-25T02:10:34;9.15;;;3.10;;
61960;SDS011;47923;42.506;24.192;2024-01-25T02:13:02;5.90;;;2.47;;
61960;SDS011;47923;42.506;24.192;2024-01-25T02:15:28;7.22;;;2.63;;
61960;SDS011;47923;42.506;24.192;2024-01-25T02:17:54;6.22;;;2.50;;
61960;SDS011;47923;42.506;24.192;2024-01-25T02:20:21;11.13;;;2.78;;
61960;SDS011;47923;42.506;24.192;2024-01-25T02:22:47;4.97;;;2.20;;
61960;SDS011;47923;42.506;24.192;2024-01-25T02:25:12;7.00;;;2.13;;
61960;SDS011;47923;42.506;24.192;2024-01-25T02:27:39;5.35;;;2.00;;
61960;SDS011;47923;42.506;24.192;2024-01-25T02:30:06;5.47;;;2.08;;
61960;SDS011;47923;42.506;24.192;2024-01-25T02:32:33;5.75;;;2.20;;
61960;SDS011;47923;42.506;24.192;2024-01-25T02:34:59;6.25;;;2.00;;
61960;SDS011;47923;42.506;24.192;2024-01-25T02:37:25;6.18;;;2.63;;
61960;SDS011;47923;42.506;24.192;2024-01-25T02:39:52;6.15;;;2.47;;
61960;SDS011;47923;42.506;24.192;2024-01-25T02:42:21;6.07;;;2.30;;
61960;SDS011;47923;42.506;24.192;2024-01-25T02:44:47;5.88;;;2.17;;
61960;SDS011;47923;42.506;24.192;2024-01-25T02:47:15;6.18;;;2.30;;
61960;SDS011;47923;42.506;24.192;2024-01-25T02:49:41;6.28;;;2.10;;
61960;SDS011;47923;42.506;24.192;2024-01-25T02:52:06;6.20;;;2.13;;
61960;SDS011;47923;42.506;24.192;2024-01-25T02:54:37;7.75;;;2.70;;
61960;SDS011;47923;42.506;24.192;2024-01-25T02:57:04;5.93;;;2.38;;
61960;SDS011;47923;42.506;24.192;2024-01-25T02:59:29;4.78;;;2.13;;
61960;SDS011;47923;42.506;24.192;2024-01-25T03:01:55;8.00;;;2.50;;
61960;SDS011;47923;42.506;24.192;2024-01-25T03:04:22;7.22;;;2.55;;
61960;SDS011;47923;42.506;24.192;2024-01-25T03:06:47;7.45;;;2.33;;
61960;SDS011;47923;42.506;24.192;2024-01-25T03:09:14;5.55;;;2.17;;
61960;SDS011;47923;42.506;24.192;2024-01-25T03:11:42;5.65;;;2.50;;
61960;SDS011;47923;42.506;24.192;2024-01-25T03:14:07;5.68;;;2.25;;
61960;SDS011;47923;42.506;24.192;2024-01-25T03:16:33;5.22;;;2.13;;
61960;SDS011;47923;42.506;24.192;2024-01-25T03:18:59;4.68;;;1.92;;
61960;SDS011;47923;42.506;24.192;2024-01-25T03:21:24;8.68;;;2.30;;
61960;SDS011;47923;42.506;24.192;2024-01-25T03:23:57;7.07;;;2.25;;
61960;SDS011;47923;42.506;24.192;2024-01-25T03:26:22;10.77;;;8.52;;
61960;SDS011;47923;42.506;24.192;2024-01-25T03:28:48;4.57;;;2.05;;
61960;SDS011;47923;42.506;24.192;2024-01-25T03:31:14;5.28;;;2.10;;
61960;SDS011;47923;42.506;24.192;2024-01-25T03:33:40;7.38;;;1.92;;
61960;SDS011;47923;42.506;24.192;2024-01-25T03:36:06;6.95;;;2.05;;
61960;SDS011;47923;42.506;24.192;2024-01-25T03:38:33;5.32;;;2.47;;
61960;SDS011;47923;42.506;24.192;2024-01-25T03:41:00;3.80;;;1.58;;
61960;SDS011;47923;42.506;24.192;2024-01-25T03:43:27;4.40;;;1.67;;
61960;SDS011;47923;42.506;24.192;2024-01-25T03:45:53;4.35;;;1.70;;
61960;SDS011;47923;42.506;24.192;2024-01-25T03:48:21;5.70;;;1.77;;
61960;SDS011;47923;42.506;24.192;2024-01-25T03:50:48;5.15;;;2.28;;
61960;SDS011;47923;42.506;24.192;2024-01-25T03:53:14;4.93;;;1.63;;
61960;SDS011;47923;42.506;24.192;2024-01-25T03:55:41;4.80;;;1.88;;
61960;SDS011;47923;42.506;24.192;2024-01-25T03:58:08;6.90;;;2.70;;
61960;SDS011;47923;42.506;24.192;2024-01-25T04:00:33;5.13;;;1.90;;
61960;SDS011;47923;42.506;24.192;2024-01-25T04:03:00;6.35;;;2.08;;
61960;SDS011;47923;42.506;24.192;2024-01-25T04:05:27;8.32;;;2.58;;
61960;SDS011;47923;42.506;24.192;2024-01-25T04:07:52;6.68;;;2.10;;
61960;SDS011;47923;42.506;24.192;2024-01-25T04:10:21;5.03;;;2.03;;
61960;SDS011;47923;42.506;24.192;2024-01-25T04:12:48;5.75;;;2.10;;
61960;SDS011;47923;42.506;24.192;2024-01-25T04:15:14;4.07;;;1.35;;
61960;SDS011;47923;42.506;24.192;2024-01-25T04:17:43;7.07;;;2.28;;
61960;SDS011;47923;42.506;24.192;2024-01-25T04:20:08;6.78;;;2.33;;
61960;SDS011;47923;42.506;24.192;2024-01-25T04:22:35;3.97;;;1.80;;
61960;SDS011;47923;42.506;24.192;2024-01-25T04:25:01;8.95;;;2.95;;
61960;SDS011;47923;42.506;24.192;2024-01-25T04:27:26;6.82;;;2.53;;
61960;SDS011;47923;42.506;24.192;2024-01-25T04:29:53;8.05;;;2.95;;
61960;SDS011;47923;42.506;24.192;2024-01-25T04:32:19;5.18;;;2.35;;
61960;SDS011;47923;42.506;24.192;2024-01-25T04:34:45;4.57;;;2.35;;
61960;SDS011;47923;42.506;24.192;2024-01-25T04:37:14;7.95;;;2.97;;
61960;SDS011;47923;42.506;24.192;2024-01-25T04:39:43;10.05;;;4.10;;
61960;SDS011;47923;42.506;24.192;2024-01-25T04:42:09;7.68;;;2.58;;
61960;SDS011;47923;42.506;24.192;2024-01-25T04:44:34;7.28;;;2.90;;
61960;SDS011;47923;42.506;24.192;2024-01-25T04:47:01;5.68;;;2.58;;
61960;SDS011;47923;42.506;24.192;2024-01-25T04:49:32;5.57;;;2.40;;
61960;SDS011;47923;42.506;24.192;2024-01-25T04:51:58;6.00;;;1.65;;
61960;SDS011;47923;42.506;24.192;2024-01-25T04:54:23;5.18;;;1.80;;
61960;SDS011;47923;42.506;24.192;2024-01-25T04:56:49;5.35;;;1.80;;
61960;SDS011;47923;42.506;24.192;2024-01-25T04:59:17;4.65;;;2.17;;
61960;SDS011;47923;42.506;24.192;2024-01-25T05:01:43;7.75;;;2.67;;
61960;SDS011;47923;42.506;24.192;2024-01-25T05:04:09;8.85;;;3.35;;
61960;SDS011;47923;42.506;24.192;2024-01-25T05:06:35;9.30;;;3.53;;
61960;SDS011;47923;42.506;24.192;2024-01-25T05:09:03;7.03;;;3.13;;
61960;SDS011;47923;42.506;24.192;2024-01-25T05:11:30;9.05;;;3.30;;
61960;SDS011;47923;42.506;24.192;2024-01-25T05:13:57;12.52;;;5.47;;
61960;SDS011;47923;42.506;24.192;2024-01-25T05:16:23;9.20;;;4.03;;
61960;SDS011;47923;42.506;24.192;2024-01-25T05:18:49;8.35;;;3.60;;
61960;SDS011;47923;42.506;24.192;2024-01-25T05:21:14;7.50;;;3.17;;
61960;SDS011;47923;42.506;24.192;2024-01-25T05:23:41;7.38;;;2.75;;
61960;SDS011;47923;42.506;24.192;2024-01-25T05:26:07;6.57;;;2.88;;
61960;SDS011;47923;42.506;24.192;2024-01-25T05:28:33;10.32;;;3.70;;
61960;SDS011;47923;42.506;24.192;2024-01-25T05:30:59;8.00;;;3.70;;
61960;SDS011;47923;42.506;24.192;2024-01-25T05:33:25;7.88;;;2.95;;
61960;SDS011;47923;42.506;24.192;2024-01-25T05:35:54;6.07;;;2.65;;
61960;SDS011;47923;42.506;24.192;2024-01-25T05:38:21;7.22;;;2.78;;
61960;SDS011;47923;42.506;24.192;2024-01-25T05:40:50;8.20;;;3.53;;
61960;SDS011;47923;42.506;24.192;2024-01-25T05:43:16;6.13;;;2.42;;
61960;SDS011;47923;42.506;24.192;2024-01-25T05:45:44;6.40;;;2.83;;
61960;SDS011;47923;42.506;24.192;2024-01-25T05:48:12;7.20;;;3.25;;
61960;SDS011;47923;42.506;24.192;2024-01-25T05:50:37;7.32;;;2.95;;
61960;SDS011;47923;42.506;24.192;2024-01-25T05:53:06;6.50;;;3.05;;
61960;SDS011;47923;42.506;24.192;2024-01-25T05:55:31;9.20;;;2.90;;
61960;SDS011;47923;42.506;24.192;2024-01-25T05:57:57;8.38;;;3.58;;
61960;SDS011;47923;42.506;24.192;2024-01-25T06:00:22;8.98;;;4.40;;
61960;SDS011;47923;42.506;24.192;2024-01-25T06:02:49;10.13;;;3.47;;
61960;SDS011;47923;42.506;24.192;2024-01-25T06:05:15;9.02;;;4.00;;
61960;SDS011;47923;42.506;24.192;2024-01-25T06:07:40;6.72;;;3.28;;
61960;SDS011;47923;42.506;24.192;2024-01-25T06:10:06;8.65;;;3.85;;
61960;SDS011;47923;42.506;24.192;2024-01-25T06:12:32;7.28;;;2.97;;
61960;SDS011;47923;42.506;24.192;2024-01-25T06:15:00;8.02;;;3.53;;
61960;SDS011;47923;42.506;24.192;2024-01-25T06:17:28;6.57;;;2.88;;
61960;SDS011;47923;42.506;24.192;2024-01-25T06:19:57;13.55;;;5.10;;
61960;SDS011;47923;42.506;24.192;2024-01-25T06:22:22;8.77;;;3.53;;
61960;SDS011;47923;42.506;24.192;2024-01-25T06:24:48;8.20;;;3.40;;
61960;SDS011;47923;42.506;24.192;2024-01-25T06:27:17;9.10;;;3.90;;
61960;SDS011;47923;42.506;24.192;2024-01-25T06:29:43;8.77;;;3.58;;
61960;SDS011;47923;42.506;24.192;2024-01-25T06:32:09;9.50;;;4.13;;
61960;SDS011;47923;42.506;24.192;2024-01-25T06:34:35;7.75;;;3.38;;
61960;SDS011;47923;42.506;24.192;2024-01-25T06:37:01;11.48;;;3.58;;
61960;SDS011;47923;42.506;24.192;2024-01-25T06:39:26;8.85;;;4.10;;
61960;SDS011;47923;42.506;24.192;2024-01-25T06:41:52;8.57;;;3.35;;
61960;SDS011;47923;42.506;24.192;2024-01-25T06:44:25;7.43;;;2.97;;
61960;SDS011;47923;42.506;24.192;2024-01-25T06:46:52;8.18;;;3.35;;
61960;SDS011;47923;42.506;24.192;2024-01-25T06:49:18;6.97;;;2.85;;
61960;SDS011;47923;42.506;24.192;2024-01-25T06:51:45;7.20;;;3.10;;
61960;SDS011;47923;42.506;24.192;2024-01-25T06:54:13;6.00;;;2.50;;
61960;SDS011;47923;42.506;24.192;2024-01-25T06:56:39;8.65;;;3.30;;
61960;SDS011;47923;42.506;24.192;2024-01-25T06:59:05;7.10;;;2.80;;
61960;SDS011;47923;42.506;24.192;2024-01-25T07:01:30;9.18;;;4.07;;
61960;SDS011;47923;42.506;24.192;2024-01-25T07:03:56;8.38;;;3.45;;
61960;SDS011;47923;42.506;24.192;2024-01-25T07:06:21;7.40;;;3.28;;
61960;SDS011;47923;42.506;24.192;2024-01-25T07:08:48;10.13;;;4.30;;
61960;SDS011;47923;42.506;24.192;2024-01-25T07:11:14;7.88;;;3.65;;
61960;SDS011;47923;42.506;24.192;2024-01-25T07:13:40;7.78;;;3.50;;
61960;SDS011;47923;42.506;24.192;2024-01-25T07:16:07;7.60;;;4.10;;
61960;SDS011;47923;42.506;24.192;2024-01-25T07:18:33;9.15;;;3.83;;
61960;SDS011;47923;42.506;24.192;2024-01-25T07:21:06;7.43;;;3.40;;
61960;SDS011;47923;42.506;24.192;2024-01-25T07:23:33;7.50;;;3.63;;
61960;SDS011;47923;42.506;24.192;2024-01-25T07:26:01;6.70;;;2.92;;
61960;SDS011;47923;42.506;24.192;2024-01-25T07:28:28;8.98;;;3.38;;
61960;SDS011;47923;42.506;24.192;2024-01-25T07:30:53;8.68;;;3.63;;
61960;SDS011;47923;42.506;24.192;2024-01-25T07:33:21;8.13;;;3.47;;
61960;SDS011;47923;42.506;24.192;2024-01-25T07:35:48;10.20;;;3.50;;
61960;SDS011;47923;42.506;24.192;2024-01-25T07:38:17;7.32;;;3.30;;
61960;SDS011;47923;42.506;24.192;2024-01-25T07:40:42;10.05;;;3.63;;
61960;SDS011;47923;42.506;24.192;2024-01-25T07:43:09;10.48;;;4.25;;
61960;SDS011;47923;42.506;24.192;2024-01-25T07:45:36;8.50;;;3.50;;
61960;SDS011;47923;42.506;24.192;2024-01-25T07:48:03;8.68;;;3.90;;
61960;SDS011;47923;42.506;24.192;2024-01-25T07:50:32;10.40;;;5.72;;
61960;SDS011;47923;42.506;24.192;2024-01-25T07:52:57;11.02;;;5.50;;
61960;SDS011;47923;42.506;24.192;2024-01-25T07:55:26;7.35;;;3.30;;
61960;SDS011;47923;42.506;24.192;2024-01-25T07:57:53;12.43;;;4.82;;
61960;SDS011;47923;42.506;24.192;2024-01-25T08:00:18;10.10;;;3.75;;
61960;SDS011;47923;42.506;24.192;2024-01-25T08:02:44;11.18;;;5.43;;
61960;SDS011;47923;42.506;24.192;2024-01-25T08:05:10;8.65;;;3.33;;
61960;SDS011;47923;42.506;24.192;2024-01-25T08:07:37;8.80;;;3.47;;
61960;SDS011;47923;42.506;24.192;2024-01-25T08:10:05;8.85;;;3.17;;
61960;SDS011;47923;42.506;24.192;2024-01-25T08:12:32;10.15;;;3.60;;
61960;SDS011;47923;42.506;24.192;2024-01-25T08:14:59;10.50;;;4.90;;
61960;SDS011;47923;42.506;24.192;2024-01-25T08:17:26;9.02;;;4.22;;
61960;SDS011;47923;42.506;24.192;2024-01-25T08:19:51;11.00;;;4.30;;
61960;SDS011;47923;42.506;24.192;2024-01-25T08:22:16;10.02;;;4.05;;
61960;SDS011;47923;42.506;24.192;2024-01-25T08:24:42;11.23;;;3.42;;
61960;SDS011;47923;42.506;24.192;2024-01-25T08:27:08;9.73;;;3.60;;
61960;SDS011;47923;42.506;24.192;2024-01-25T08:29:34;9.07;;;3.70;;
61960;SDS011;47923;42.506;24.192;2024-01-25T08:32:02;9.98;;;3.90;;
61960;SDS011;47923;42.506;24.192;2024-01-25T08:34:28;7.47;;;3.30;;
61960;SDS011;47923;42.506;24.192;2024-01-25T08:36:53;9.57;;;4.53;;
61960;SDS011;47923;42.506;24.192;2024-01-25T08:39:19;8.63;;;3.88;;
61960;SDS011;47923;42.506;24.192;2024-01-25T08:41:45;9.52;;;3.40;;
61960;SDS011;47923;42.506;24.192;2024-01-25T08:44:12;8.23;;;3.80;;
61960;SDS011;47923;42.506;24.192;2024-01-25T08:46:37;8.25;;;3.30;;
61960;SDS011;47923;42.506;24.192;2024-01-25T08:49:04;7.00;;;3.38;;
61960;SDS011;47923;42.506;24.192;2024-01-25T08:51:33;10.02;;;4.47;;
61960;SDS011;47923;42.506;24.192;2024-01-25T08:53:59;11.05;;;4.78;;
61960;SDS011;47923;42.506;24.192;2024-01-25T08:56:26;8.07;;;4.40;;
61960;SDS011;47923;42.506;24.192;2024-01-25T08:58:56;9.68;;;3.70;;
61960;SDS011;47923;42.506;24.192;2024-01-25T09:01:23;8.05;;;3.42;;
61960;SDS011;47923;42.506;24.192;2024-01-25T09:03:50;9.30;;;4.53;;
61960;SDS011;47923;42.506;24.192;2024-01-25T09:06:20;8.00;;;3.80;;
61960;SDS011;47923;42.506;24.192;2024-01-25T09:08:46;9.65;;;4.43;;
61960;SDS011;47923;42.506;24.192;2024-01-25T09:11:12;8.93;;;3.25;;
61960;SDS011;47923;42.506;24.192;2024-01-25T09:13:41;11.50;;;4.68;;
61960;SDS011;47923;42.506;24.192;2024-01-25T09:16:10;11.57;;;4.88;;
61960;SDS011;47923;42.506;24.192;2024-01-25T09:18:38;11.10;;;4.47;;
61960;SDS011;47923;42.506;24.192;2024-01-25T09:21:04;8.75;;;3.40;;
61960;SDS011;47923;42.506;24.192;2024-01-25T09:23:29;8.07;;;3.67;;
61960;SDS011;47923;42.506;24.192;2024-01-25T09:25:57;9.77;;;4.30;;
61960;SDS011;47923;42.506;24.192;2024-01-25T09:28:22;9.40;;;4.38;;
61960;SDS011;47923;42.506;24.192;2024-01-25T09:30:50;10.30;;;4.63;;
61960;SDS011;47923;42.506;24.192;2024-01-25T09:33:18;8.80;;;3.45;;
61960;SDS011;47923;42.506;24.192;2024-01-25T09:35:44;8.95;;;3.60;;
61960;SDS011;47923;42.506;24.192;2024-01-25T09:38:13;8.75;;;4.05;;
61960;SDS011;47923;42.506;24.192;2024-01-25T09:40:40;10.05;;;4.00;;
61960;SDS011;47923;42.506;24.192;2024-01-25T09:43:06;9.63;;;4.90;;
61960;SDS011;47923;42.506;24.192;2024-01-25T09:45:33;11.45;;;5.55;;
61960;SDS011;47923;42.506;24.192;2024-01-25T09:48:00;9.68;;;3.47;;
61960;SDS011;47923;42.506;24.192;2024-01-25T09:50:30;9.10;;;3.22;;
61960;SDS011;47923;42.506;24.192;2024-01-25T09:52:59;8.98;;;3.50;;
61960;SDS011;47923;42.506;24.192;2024-01-25T09:55:29;10.07;;;4.07;;
61960;SDS011;47923;42.506;24.192;2024-01-25T09:57:58;11.07;;;3.67;;
61960;SDS011;47923;42.506;24.192;2024-01-25T10:00:27;10.40;;;3.75;;
61960;SDS011;47923;42.506;24.192;2024-01-25T10:02:52;9.90;;;3.85;;
61960;SDS011;47923;42.506;24.192;2024-01-25T10:05:24;10.27;;;3.53;;
61960;SDS011;47923;42.506;24.192;2024-01-25T10:07:52;9.73;;;3.47;;
61960;SDS011;47923;42.506;24.192;2024-01-25T10:10:19;9.40;;;3.30;;
61960;SDS011;47923;42.506;24.192;2024-01-25T10:12:46;9.45;;;3.42;;
61960;SDS011;47923;42.506;24.192;2024-01-25T10:15:12;11.95;;;3.50;;
61960;SDS011;47923;42.506;24.192;2024-01-25T10:17:38;10.45;;;3.22;;
61960;SDS011;47923;42.506;24.192;2024-01-25T10:20:05;11.90;;;4.05;;
61960;SDS011;47923;42.506;24.192;2024-01-25T10:22:35;9.45;;;3.78;;
61960;SDS011;47923;42.506;24.192;2024-01-25T10:25:02;7.57;;;3.38;;
61960;SDS011;47923;42.506;24.192;2024-01-25T10:27:28;8.27;;;3.05;;
61960;SDS011;47923;42.506;24.192;2024-01-25T10:29:55;7.70;;;2.97;;
61960;SDS011;47923;42.506;24.192;2024-01-25T10:32:21;8.38;;;3.72;;
61960;SDS011;47923;42.506;24.192;2024-01-25T10:34:46;10.45;;;3.53;;
61960;SDS011;47923;42.506;24.192;2024-01-25T10:37:14;10.57;;;4.47;;
61960;SDS011;47923;42.506;24.192;2024-01-25T10:39:41;6.65;;;3.47;;
61960;SDS011;47923;42.506;24.192;2024-01-25T10:42:06;10.18;;;3.35;;
61960;SDS011;47923;42.506;24.192;2024-01-25T10:44:32;10.57;;;4.07;;
61960;SDS011;47923;42.506;24.192;2024-01-25T10:46:58;14.68;;;4.40;;
61960;SDS011;47923;42.506;24.192;2024-01-25T10:49:26;14.75;;;5.18;;
61960;SDS011;47923;42.506;24.192;2024-01-25T10:51:54;9.70;;;4.20;;
61960;SDS011;47923;42.506;24.192;2024-01-25T10:54:20;11.95;;;3.78;;
61960;SDS011;47923;42.506;24.192;2024-01-25T10:56:48;12.68;;;4.40;;
61960;SDS011;47923;42.506;24.192;2024-01-25T10:59:15;9.60;;;3.97;;
61960;SDS011;47923;42.506;24.192;2024-01-25T11:01:44;10.32;;;4.47;;
61960;SDS011;47923;42.506;24.192;2024-01-25T11:04:19;11.73;;;3.22;;
61960;SDS011;47923;42.506;24.192;2024-01-25T11:06:45;10.85;;;3.28;;
61960;SDS011;47923;42.506;24.192;2024-01-25T11:09:18;10.18;;;4.00;;
61960;SDS011;47923;42.506;24.192;2024-01-25T11:11:47;12.10;;;4.65;;
61960;SDS011;47923;42.506;24.192;2024-01-25T11:14:14;8.88;;;3.60;;
61960;SDS011;47923;42.506;24.192;2024-01-25T11:16:41;8.25;;;3.08;;
61960;SDS011;47923;42.506;24.192;2024-01-25T11:19:16;9.98;;;4.10;;
61960;SDS011;47923;42.506;24.192;2024-01-25T11:21:44;11.38;;;4.75;;
61960;SDS011;47923;42.506;24.192;2024-01-25T11:24:23;10.15;;;4.57;;
61960;SDS011;47923;42.506;24.192;2024-01-25T11:26:53;8.68;;;3.70;;
61960;SDS011;47923;42.506;24.192;2024-01-25T11:29:20;9.18;;;3.53;;
61960;SDS011;47923;42.506;24.192;2024-01-25T11:31:48;9.82;;;3.60;;
61960;SDS011;47923;42.506;24.192;2024-01-25T11:34:14;9.77;;;4.22;;
61960;SDS011;47923;42.506;24.192;2024-01-25T11:36:40;8.93;;;3.92;;
61960;SDS011;47923;42.506;24.192;2024-01-25T11:39:08;13.30;;;3.38;;
61960;SDS011;47923;42.506;24.192;2024-01-25T11:41:35;9.50;;;3.83;;
61960;SDS011;47923;42.506;24.192;2024-01-25T11:44:01;10.50;;;3.72;;
61960;SDS011;47923;42.506;24.192;2024-01-25T11:46:28;9.40;;;4.18;;
61960;SDS011;47923;42.506;24.192;2024-01-25T11:48:55;10.30;;;3.72;;
61960;SDS011;47923;42.506;24.192;2024-01-25T11:51:21;10.15;;;3.33;;
61960;SDS011;47923;42.506;24.192;2024-01-25T11:53:47;12.50;;;4.65;;
61960;SDS011;47923;42.506;24.192;2024-01-25T11:56:14;9.52;;;4.28;;
61960;SDS011;47923;42.506;24.192;2024-01-25T11:58:44;9.20;;;3.95;;
61960;SDS011;47923;42.506;24.192;2024-01-25T12:01:11;10.32;;;3.47;;
61960;SDS011;47923;42.506;24.192;2024-01-25T12:03:37;8.98;;;3.55;;
61960;SDS011;47923;42.506;24.192;2024-01-25T12:06:04;10.48;;;3.38;;
61960;SDS011;47923;42.506;24.192;2024-01-25T12:08:31;9.57;;;3.83;;
61960;SDS011;47923;42.506;24.192;2024-01-25T12:13:34;13.82;;;4.40;;
61960;SDS011;47923;42.506;24.192;2024-01-25T12:16:05;10.57;;;3.85;;
61960;SDS011;47923;42.506;24.192;2024-01-25T12:18:31;8.90;;;3.55;;
61960;SDS011;47923;42.506;24.192;2024-01-25T12:21:02;10.15;;;3.58;;
61960;SDS011;47923;42.506;24.192;2024-01-25T12:23:35;10.57;;;3.08;;
61960;SDS011;47923;42.506;24.192;2024-01-25T12:26:03;9.85;;;3.85;;
61960;SDS011;47923;42.506;24.192;2024-01-25T12:28:31;12.23;;;4.40;;
61960;SDS011;47923;42.506;24.192;2024-01-25T12:30:58;10.27;;;4.65;;
61960;SDS011;47923;42.506;24.192;2024-01-25T12:33:27;12.57;;;7.03;;
61960;SDS011;47923;42.506;24.192;2024-01-25T12:35:52;11.43;;;3.70;;
61960;SDS011;47923;42.506;24.192;2024-01-25T12:38:20;10.63;;;4.03;;
61960;SDS011;47923;42.506;24.192;2024-01-25T12:40:48;11.45;;;3.90;;
61960;SDS011;47923;42.506;24.192;2024-01-25T12:43:15;13.57;;;4.10;;
61960;SDS011;47923;42.506;24.192;2024-01-25T12:45:41;11.32;;;4.25;;
61960;SDS011;47923;42.506;24.192;2024-01-25T12:48:07;9.70;;;4.70;;
61960;SDS011;47923;42.506;24.192;2024-01-25T12:50:34;10.95;;;4.78;;
61960;SDS011;47923;42.506;24.192;2024-01-25T12:53:00;11.00;;;3.83;;
61960;SDS011;47923;42.506;24.192;2024-01-25T12:55:27;11.02;;;3.78;;
61960;SDS011;47923;42.506;24.192;2024-01-25T12:57:54;13.98;;;4.45;;
61960;SDS011;47923;42.506;24.192;2024-01-25T13:00:20;12.13;;;4.45;;
61960;SDS011;47923;42.506;24.192;2024-01-25T13:02:46;12.02;;;4.45;;
61960;SDS011;47923;42.506;24.192;2024-01-25T13:05:12;12.30;;;4.82;;
61960;SDS011;47923;42.506;24.192;2024-01-25T13:07:41;11.02;;;4.40;;
61960;SDS011;47923;42.506;24.192;2024-01-25T13:10:08;10.55;;;3.90;;
61960;SDS011;47923;42.506;24.192;2024-01-25T13:12:36;11.60;;;4.00;;
61960;SDS011;47923;42.506;24.192;2024-01-25T13:15:02;10.65;;;3.50;;
61960;SDS011;47923;42.506;24.192;2024-01-25T13:17:27;10.27;;;4.75;;
61960;SDS011;47923;42.506;24.192;2024-01-25T13:19:53;12.40;;;3.90;;
61960;SDS011;47923;42.506;24.192;2024-01-25T13:22:19;13.45;;;3.95;;
61960;SDS011;47923;42.506;24.192;2024-01-25T13:24:46;11.45;;;4.50;;
61960;SDS011;47923;42.506;24.192;2024-01-25T13:27:12;10.95;;;3.60;;
61960;SDS011;47923;42.506;24.192;2024-01-25T13:29:37;11.65;;;3.72;;
61960;SDS011;47923;42.506;24.192;2024-01-25T13:32:03;8.88;;;3.33;;
61960;SDS011;47923;42.506;24.192;2024-01-25T13:34:29;13.63;;;4.25;;
61960;SDS011;47923;42.506;24.192;2024-01-25T13:36:55;14.38;;;4.90;;
61960;SDS011;47923;42.506;24.192;2024-01-25T13:39:20;8.63;;;3.00;;
61960;SDS011;47923;42.506;24.192;2024-01-25T13:41:47;10.45;;;3.65;;
61960;SDS011;47923;42.506;24.192;2024-01-25T13:44:16;11.70;;;3.10;;
61960;SDS011;47923;42.506;24.192;2024-01-25T13:46:42;9.52;;;3.30;;
61960;SDS011;47923;42.506;24.192;2024-01-25T13:49:07;14.13;;;3.00;;
61960;SDS011;47923;42.506;24.192;2024-01-25T13:51:34;11.25;;;3.35;;
61960;SDS011;47923;42.506;24.192;2024-01-25T13:54:01;12.00;;;3.25;;
61960;SDS011;47923;42.506;24.192;2024-01-25T13:56:26;10.50;;;3.40;;
61960;SDS011;47923;42.506;24.192;2024-01-25T13:58:52;14.05;;;4.80;;
61960;SDS011;47923;42.506;24.192;2024-01-25T14:01:17;9.35;;;3.50;;
61960;SDS011;47923;42.506;24.192;2024-01-25T14:03:43;10.40;;;3.60;;
61960;SDS011;47923;42.506;24.192;2024-01-25T14:06:08;10.43;;;3.38;;
61960;SDS011;47923;42.506;24.192;2024-01-25T14:08:37;11.63;;;3.53;;
61960;SDS011;47923;42.506;24.192;2024-01-25T14:11:03;10.82;;;3.85;;
61960;SDS011;47923;42.506;24.192;2024-01-25T14:13:29;12.50;;;4.43;;
61960;SDS011;47923;42.506;24.192;2024-01-25T14:15:55;10.02;;;3.92;;
61960;SDS011;47923;42.506;24.192;2024-01-25T14:18:20;8.50;;;3.47;;
61960;SDS011;47923;42.506;24.192;2024-01-25T14:20:47;16.10;;;4.85;;
61960;SDS011;47923;42.506;24.192;2024-01-25T14:23:12;12.20;;;4.03;;
61960;SDS011;47923;42.506;24.192;2024-01-25T14:25:38;14.32;;;5.10;;
61960;SDS011;47923;42.506;24.192;2024-01-25T14:28:04;11.73;;;4.60;;
61960;SDS011;47923;42.506;24.192;2024-01-25T14:30:29;10.60;;;3.72;;
61960;SDS011;47923;42.506;24.192;2024-01-25T14:32:55;10.45;;;4.13;;